createdAt,value
2018-03-06T00:02:09.870Z,95310.70
2018-03-06T00:04:40.925Z,95304.73
2018-03-06T00:07:11.903Z,95307.83
2018-03-06T00:09:42.931Z,95303.81
2018-03-06T00:12:14.048Z,95303.12
2018-03-06T00:14:45.097Z,95301.19
2018-03-06T00:17:16.147Z,95305.22
2018-03-06T00:19:47.133Z,95304.42
2018-03-06T00:22:18.142Z,95305.45
2018-03-06T00:24:49.171Z,95307.16
2018-03-06T00:27:20.220Z,95306.91
2018-03-06T00:29:51.259Z,95307.17
2018-03-06T00:32:22.386Z,95302.34
2018-03-06T00:34:53.329Z,95304.30
2018-03-06T00:37:24.350Z,95302.35
2018-03-06T00:39:55.331Z,95298.03
2018-03-06T00:42:26.368Z,95296.59
2018-03-06T00:44:57.440Z,95295.16
2018-03-06T00:47:28.439Z,95289.97
2018-03-06T00:49:59.458Z,95288.16
2018-03-06T00:52:30.433Z,95284.25
2018-03-06T00:55:01.443Z,95280.63
2018-03-06T00:57:32.459Z,95284.91
2018-03-06T01:00:03.884Z,95280.21
2018-03-06T01:02:34.887Z,95277.47
2018-03-06T01:05:05.893Z,95269.27
2018-03-06T01:07:36.909Z,95274.63
2018-03-06T01:10:07.922Z,95271.48
2018-03-06T01:12:38.969Z,95264.84
2018-03-06T01:15:09.979Z,95266.78
2018-03-06T01:17:41.020Z,95267.94
2018-03-06T01:20:12.011Z,95261.38
2018-03-06T01:22:43.036Z,95258.73
2018-03-06T01:25:14.190Z,95250.36
2018-03-06T01:27:45.198Z,95257.44
2018-03-06T01:30:16.272Z,95256.05
2018-03-06T01:32:47.284Z,95254.09
2018-03-06T01:35:18.263Z,95253.94
2018-03-06T01:37:49.268Z,95254.63
2018-03-06T01:40:20.276Z,95247.56
2018-03-06T01:42:51.295Z,95247.68
2018-03-06T01:45:22.297Z,95245.99
2018-03-06T01:47:53.338Z,95248.11
2018-03-06T01:50:24.427Z,95248.09
2018-03-06T01:52:55.444Z,95239.12
2018-03-06T01:55:26.461Z,95240.95
2018-03-06T01:57:57.477Z,95244.34
2018-03-06T02:00:28.508Z,95240.33
2018-03-06T02:02:59.509Z,95237.09
2018-03-06T02:05:30.497Z,95237.87
2018-03-06T02:08:01.504Z,95235.43
2018-03-06T02:10:32.481Z,95230.90
2018-03-06T02:13:03.487Z,95236.41
2018-03-06T02:15:34.513Z,95232.13
2018-03-06T02:18:05.550Z,95234.20
2018-03-06T02:20:37.323Z,95226.31
2018-03-06T02:23:08.367Z,95229.70
2018-03-06T02:25:39.416Z,95227.62
2018-03-06T02:28:10.432Z,95225.51
2018-03-06T02:30:41.479Z,95225.39
2018-03-06T02:33:12.541Z,95225.14
2018-03-06T02:35:43.543Z,95228.67
2018-03-06T02:38:14.581Z,95230.36
2018-03-06T02:40:45.579Z,95226.48
2018-03-06T02:43:16.585Z,95221.58
2018-03-06T02:45:47.576Z,95219.77
2018-03-06T02:48:18.596Z,95226.78
2018-03-06T02:50:49.651Z,95223.81
2018-03-06T02:53:20.750Z,95214.81
2018-03-06T02:55:51.768Z,95219.19
2018-03-06T02:58:22.812Z,95218.80
2018-03-06T03:00:53.857Z,95212.42
2018-03-06T03:03:24.865Z,95217.89
2018-03-06T03:05:55.940Z,95211.22
2018-03-06T03:08:26.953Z,95207.70
2018-03-06T03:10:57.988Z,95206.26
2018-03-06T03:13:29.036Z,95202.97
2018-03-06T03:16:00.053Z,95195.40
2018-03-06T03:18:31.927Z,95203.61
2018-03-06T03:21:02.925Z,95206.50
2018-03-06T03:23:33.971Z,95204.47
2018-03-06T03:26:05.008Z,95202.16
2018-03-06T03:28:36.036Z,95199.85
2018-03-06T03:31:07.072Z,95211.27
2018-03-06T03:33:38.075Z,95201.80
2018-03-06T03:36:09.090Z,95193.66
2018-03-06T03:38:40.112Z,95199.13
2018-03-06T03:41:11.192Z,95202.37
2018-03-06T03:43:42.229Z,95195.52
2018-03-06T03:46:13.251Z,95195.47
2018-03-06T03:48:44.255Z,95193.76
2018-03-06T03:51:15.288Z,95196.75
2018-03-06T03:53:46.306Z,95201.45
2018-03-06T03:56:17.319Z,95196.03
2018-03-06T03:58:48.324Z,95196.70
2018-03-06T04:01:19.333Z,95190.30
2018-03-06T04:03:50.299Z,95183.16
2018-03-06T04:06:21.335Z,95186.31
2018-03-06T04:08:52.362Z,95190.67
2018-03-06T04:11:23.396Z,95185.50
2018-03-06T04:13:54.442Z,95191.73
2018-03-06T04:16:25.411Z,95190.50
2018-03-06T04:18:56.404Z,95188.72
2018-03-06T04:21:27.401Z,95194.47
2018-03-06T04:23:58.413Z,95191.25
2018-03-06T04:26:29.396Z,95188.98
2018-03-06T04:29:00.411Z,95191.09
2018-03-06T04:31:31.469Z,95186.44
2018-03-06T04:34:02.464Z,95193.44
2018-03-06T04:36:33.479Z,95185.26
2018-03-06T04:39:04.607Z,95182.66
2018-03-06T04:41:35.596Z,95189.52
2018-03-06T04:44:06.616Z,95184.97
2018-03-06T04:46:37.630Z,95188.72
2018-03-06T04:49:08.627Z,95182.17
2018-03-06T04:51:39.700Z,95183.33
2018-03-06T04:54:10.745Z,95181.39
2018-03-06T04:56:41.761Z,95175.37
2018-03-06T04:59:12.750Z,95181.31
2018-03-06T05:01:43.747Z,95180.39
2018-03-06T05:04:14.780Z,95176.62
2018-03-06T05:06:45.794Z,95172.39
2018-03-06T05:09:16.804Z,95167.33
2018-03-06T05:11:47.789Z,95171.39
2018-03-06T05:14:18.816Z,95171.84
2018-03-06T05:16:49.819Z,95166.11
2018-03-06T05:19:20.868Z,95173.16
2018-03-06T05:21:51.921Z,95174.07
2018-03-06T05:24:22.931Z,95175.47
2018-03-06T05:26:54.021Z,95164.81
2018-03-06T05:29:25.017Z,95164.94
2018-03-06T05:31:56.045Z,95160.41
2018-03-06T05:34:27.035Z,95162.91
2018-03-06T05:36:58.041Z,95162.12
2018-03-06T05:39:29.026Z,95162.12
2018-03-06T05:42:00.057Z,95162.44
2018-03-06T05:44:31.008Z,95156.58
2018-03-06T05:47:02.041Z,95157.15
2018-03-06T05:49:33.048Z,95160.50
2018-03-06T05:52:04.067Z,95163.30
2018-03-06T05:54:35.090Z,95158.66
2018-03-06T05:57:06.073Z,95167.13
2018-03-06T05:59:37.097Z,95156.42
2018-03-06T06:02:08.105Z,95161.55
2018-03-06T06:04:39.129Z,95164.96
2018-03-06T06:07:10.134Z,95163.33
2018-03-06T06:09:41.155Z,95168.05
2018-03-06T06:12:13.096Z,95173.53
2018-03-06T06:14:44.095Z,95162.89
2018-03-06T06:17:15.093Z,95169.83
2018-03-06T06:19:46.063Z,95161.37
2018-03-06T06:22:17.053Z,95156.70
2018-03-06T06:24:48.061Z,95158.42
2018-03-06T06:27:19.074Z,95162.58
2018-03-06T06:29:50.069Z,95167.78
2018-03-06T06:32:21.095Z,95167.77
2018-03-06T06:34:52.067Z,95162.56
2018-03-06T06:37:23.081Z,95164.88
2018-03-06T06:39:54.083Z,95164.59
2018-03-06T06:42:25.110Z,95167.14
2018-03-06T06:44:56.084Z,95161.50
2018-03-06T06:47:27.107Z,95159.44
2018-03-06T06:49:58.131Z,95170.64
2018-03-06T06:52:29.150Z,95171.52
2018-03-06T06:55:00.161Z,95163.72
2018-03-06T06:57:31.120Z,95163.37
2018-03-06T07:00:02.146Z,95168.20
2018-03-06T07:02:33.099Z,95169.45
2018-03-06T07:05:04.129Z,95155.98
2018-03-06T07:07:35.074Z,95164.75
2018-03-06T07:10:06.085Z,95165.20
2018-03-06T07:12:37.097Z,95164.09
2018-03-06T07:15:08.117Z,95154.08
2018-03-06T07:17:39.180Z,95163.19
2018-03-06T07:20:10.141Z,95167.72
2018-03-06T07:22:41.148Z,95164.06
2018-03-06T07:25:12.113Z,95161.01
2018-03-06T07:27:43.147Z,95155.66
2018-03-06T07:30:14.107Z,95153.30
2018-03-06T07:32:45.111Z,95159.34
2018-03-06T07:35:16.104Z,95160.09
2018-03-06T07:37:47.155Z,95158.55
2018-03-06T07:40:18.166Z,95155.05
2018-03-06T07:42:49.177Z,95151.38
2018-03-06T07:45:20.248Z,95159.80
2018-03-06T07:47:51.251Z,95152.05
2018-03-06T07:50:22.295Z,95154.20
2018-03-06T07:52:53.310Z,95151.36
2018-03-06T07:55:24.314Z,95151.41
2018-03-06T07:57:55.367Z,95154.20
2018-03-06T08:00:26.409Z,95158.86
2018-03-06T08:02:57.407Z,95156.84
2018-03-06T08:05:28.449Z,95157.33
2018-03-06T08:07:59.452Z,95161.09
2018-03-06T08:10:30.468Z,95152.27
2018-03-06T08:13:01.443Z,95144.73
2018-03-06T08:15:32.444Z,95138.53
2018-03-06T08:18:03.429Z,95141.89
2018-03-06T08:20:34.442Z,95138.27
2018-03-06T08:23:05.464Z,95141.58
2018-03-06T08:25:36.457Z,95142.09
2018-03-06T08:28:07.452Z,95143.58
2018-03-06T08:33:32.894Z,95142.70
2018-03-06T08:36:03.883Z,95152.28
2018-03-06T08:38:34.870Z,95152.19
2018-03-06T08:41:05.807Z,95149.36
2018-03-06T08:43:36.779Z,95148.02
2018-03-06T08:46:07.781Z,95149.55
2018-03-06T08:48:38.766Z,95151.38
2018-03-06T08:51:09.745Z,95152.83
2018-03-06T08:53:40.684Z,95153.27
2018-03-06T08:56:11.675Z,95151.05
2018-03-06T08:58:42.666Z,95151.44
2018-03-06T09:01:13.689Z,95151.79
2018-03-06T09:03:44.751Z,95151.17
2018-03-06T09:06:15.730Z,95143.17
2018-03-06T09:08:46.721Z,95137.89
2018-03-06T09:11:17.709Z,95139.59
2018-03-06T09:13:48.709Z,95136.06
2018-03-06T09:16:19.705Z,95141.20
2018-03-06T09:18:50.773Z,95139.23
2018-03-06T09:21:21.816Z,95145.90
2018-03-06T09:23:52.781Z,95141.58
2018-03-06T09:26:23.771Z,95139.63
2018-03-06T09:28:54.802Z,95143.13
2018-03-06T09:31:25.837Z,95137.56
2018-03-06T09:33:56.842Z,95145.25
2018-03-06T09:36:27.887Z,95140.23
2018-03-06T09:38:58.824Z,95147.60
2018-03-06T09:41:29.841Z,95147.81
2018-03-06T09:44:00.818Z,95149.64
2018-03-06T09:46:31.822Z,95152.11
2018-03-06T09:49:02.893Z,95152.33
2018-03-06T09:51:33.844Z,95151.57
2018-03-06T09:54:04.875Z,95153.34
2018-03-06T09:56:35.918Z,95152.32
2018-03-06T09:59:06.925Z,95150.75
2018-03-06T10:01:37.949Z,95157.70
2018-03-06T10:04:08.927Z,95154.16
2018-03-06T10:06:39.904Z,95151.96
2018-03-06T10:09:10.927Z,95152.97
2018-03-06T10:11:41.963Z,95150.10
2018-03-06T10:14:12.959Z,95145.77
2018-03-06T10:16:43.952Z,95142.47
2018-03-06T10:19:14.947Z,95141.99
2018-03-06T10:21:45.945Z,95141.17
2018-03-06T10:24:16.961Z,95143.61
2018-03-06T10:26:47.977Z,95140.52
2018-03-06T10:29:19.028Z,95143.75
2018-03-06T10:31:50.068Z,95142.12
2018-03-06T10:34:21.096Z,95141.94
2018-03-06T10:36:52.152Z,95140.04
2018-03-06T10:39:23.137Z,95136.92
2018-03-06T10:41:54.185Z,95135.70
2018-03-06T10:44:25.168Z,95140.53
2018-03-06T10:46:56.221Z,95138.91
2018-03-06T10:49:27.229Z,95138.63
2018-03-06T10:51:58.254Z,95139.69
2018-03-06T10:54:29.244Z,95132.50
2018-03-06T10:57:00.230Z,95120.62
2018-03-06T10:59:31.222Z,95123.10
2018-03-06T11:02:03.027Z,95121.95
2018-03-06T11:04:34.016Z,95115.77
2018-03-06T11:07:05.017Z,95109.83
2018-03-06T11:09:36.026Z,95115.56
2018-03-06T11:12:06.979Z,95106.11
2018-03-06T11:14:37.969Z,95113.58
2018-03-06T11:17:08.907Z,95116.25
2018-03-06T11:19:39.884Z,95117.33
2018-03-06T11:22:10.892Z,95112.75
2018-03-06T11:24:41.912Z,95110.82
2018-03-06T11:27:12.918Z,95105.93
2018-03-06T11:29:43.945Z,95101.68
2018-03-06T11:32:14.957Z,95099.05
2018-03-06T11:34:45.925Z,95096.51
2018-03-06T11:37:16.901Z,95089.08
2018-03-06T11:39:47.883Z,95092.61
2018-03-06T11:42:18.944Z,95094.72
2018-03-06T11:44:49.932Z,95097.12
2018-03-06T11:47:20.949Z,95104.62
2018-03-06T11:49:51.916Z,95108.19
2018-03-06T11:52:22.956Z,95113.83
2018-03-06T11:54:53.927Z,95108.58
2018-03-06T11:57:24.934Z,95106.11
2018-03-06T11:59:55.903Z,95097.72
2018-03-06T12:02:26.915Z,95100.13
2018-03-06T12:04:57.956Z,95101.26
2018-03-06T12:07:28.935Z,95094.50
2018-03-06T12:09:59.915Z,95098.94
2018-03-06T12:12:30.908Z,95091.66
2018-03-06T12:15:01.875Z,95098.81
2018-03-06T12:17:32.850Z,95100.91
2018-03-06T12:20:03.923Z,95103.77
2018-03-06T12:22:34.928Z,95108.03
2018-03-06T12:25:05.936Z,95106.56
2018-03-06T12:27:36.925Z,95108.23
2018-03-06T12:30:07.961Z,95101.72
2018-03-06T12:32:38.937Z,95093.58
2018-03-06T12:35:09.964Z,95102.52
2018-03-06T12:37:41.017Z,95100.25
2018-03-06T12:40:12.080Z,95104.80
2018-03-06T12:42:43.106Z,95101.91
2018-03-06T12:45:14.081Z,95099.55
2018-03-06T12:47:45.071Z,95104.45
2018-03-06T12:50:16.081Z,95095.55
2018-03-06T12:52:47.078Z,95097.78
2018-03-06T12:55:18.080Z,95090.76
2018-03-06T12:57:49.108Z,95086.63
2018-03-06T13:00:20.086Z,95084.72
2018-03-06T13:02:51.066Z,95088.79
2018-03-06T13:05:22.037Z,95087.18
2018-03-06T13:07:53.021Z,95078.95
2018-03-06T13:10:24.090Z,95084.09
2018-03-06T13:12:55.112Z,95079.28
2018-03-06T13:15:26.099Z,95081.80
2018-03-06T13:17:57.088Z,95079.33
2018-03-06T13:20:28.071Z,95078.47
2018-03-06T13:22:59.111Z,95075.31
2018-03-06T13:25:30.118Z,95077.34
2018-03-06T13:28:01.102Z,95067.35
2018-03-06T13:30:32.110Z,95065.48
2018-03-06T13:33:03.098Z,95075.23
2018-03-06T13:35:34.087Z,95073.08
2018-03-06T13:38:05.097Z,95079.34
2018-03-06T13:40:36.074Z,95078.97
2018-03-06T13:43:07.041Z,95083.31
2018-03-06T13:45:38.027Z,95078.61
2018-03-06T13:48:09.035Z,95077.92
2018-03-06T13:50:40.016Z,95071.59
2018-03-06T13:53:11.025Z,95071.28
2018-03-06T13:55:42.050Z,95076.69
2018-03-06T13:58:13.024Z,95073.48
2018-03-06T14:00:44.029Z,95077.37
2018-03-06T14:03:15.014Z,95076.58
2018-03-06T14:05:46.032Z,95074.55
2018-03-06T14:08:17.026Z,95074.59
2018-03-06T14:10:48.001Z,95074.03
2018-03-06T14:13:19.016Z,95077.25
2018-03-06T14:15:50.026Z,95072.31
2018-03-06T14:18:21.022Z,95069.81
2018-03-06T14:20:52.012Z,95069.61
2018-03-06T14:23:23.029Z,95072.44
2018-03-06T14:25:54.086Z,95067.75
2018-03-06T14:28:25.111Z,95066.55
2018-03-06T14:30:56.152Z,95071.68
2018-03-06T14:33:27.099Z,95072.95
2018-03-06T14:35:58.087Z,95074.16
2018-03-06T14:38:29.106Z,95073.78
2018-03-06T14:41:00.120Z,95073.14
2018-03-06T14:43:31.139Z,95070.64
2018-03-06T14:46:02.133Z,95085.09
2018-03-06T14:48:33.124Z,95076.15
2018-03-06T14:51:04.145Z,95078.43
2018-03-06T14:53:35.197Z,95075.05
2018-03-06T14:56:06.190Z,95072.01
2018-03-06T14:58:37.223Z,95076.87
2018-03-06T15:01:08.224Z,95078.13
2018-03-06T15:03:39.187Z,95072.31
2018-03-06T15:06:10.199Z,95074.28
2018-03-06T15:08:41.157Z,95075.86
2018-03-06T15:11:12.148Z,95066.33
2018-03-06T15:13:43.156Z,95068.36
2018-03-06T15:16:14.129Z,95077.04
2018-03-06T15:18:45.099Z,95078.00
2018-03-06T15:21:16.063Z,95078.25
2018-03-06T15:23:47.087Z,95080.58
2018-03-06T15:26:18.151Z,95083.58
2018-03-06T15:28:49.166Z,95076.45
2018-03-06T15:31:20.165Z,95077.11
2018-03-06T15:33:51.185Z,95082.61
2018-03-06T15:36:22.203Z,95078.83
2018-03-06T15:38:53.240Z,95079.98
2018-03-06T15:41:24.258Z,95085.58
2018-03-06T15:43:55.244Z,95081.39
2018-03-06T15:46:26.286Z,95094.80
2018-03-06T15:48:57.270Z,95092.91
2018-03-06T15:51:28.321Z,95084.62
2018-03-06T15:53:59.345Z,95091.05
2018-03-06T15:56:30.341Z,95093.33
2018-03-06T15:59:01.471Z,95091.14
2018-03-06T16:01:32.490Z,95096.77
2018-03-06T16:04:03.610Z,95098.08
2018-03-06T16:06:34.678Z,95105.70
2018-03-06T16:09:05.688Z,95110.47
2018-03-06T16:11:36.724Z,95105.46
2018-03-06T16:14:07.771Z,95107.39
2018-03-06T16:16:38.847Z,95110.73
2018-03-06T16:19:09.874Z,95114.45
2018-03-06T16:21:40.886Z,95113.34
2018-03-06T16:24:11.973Z,95116.69
2018-03-06T16:26:43.019Z,95118.95
2018-03-06T16:29:14.271Z,95122.66
2018-03-06T16:31:45.310Z,95124.25
2018-03-06T16:34:16.328Z,95134.88
2018-03-06T16:36:47.342Z,95133.71
2018-03-06T16:39:18.336Z,95136.40
2018-03-06T16:41:49.397Z,95139.06
2018-03-06T16:44:20.429Z,95134.16
2018-03-06T16:46:51.466Z,95139.72
2018-03-06T16:49:22.528Z,95137.89
2018-03-06T16:51:53.570Z,95150.58
2018-03-06T16:54:24.584Z,95147.56
2018-03-06T16:56:55.677Z,95146.34
2018-03-06T16:59:26.680Z,95146.34
2018-03-06T17:01:57.690Z,95147.88
2018-03-06T17:04:28.718Z,95143.17
2018-03-06T17:06:59.765Z,95143.78
2018-03-06T17:09:30.756Z,95144.23
2018-03-06T17:12:01.836Z,95145.54
2018-03-06T17:14:32.866Z,95151.94
2018-03-06T17:17:03.888Z,95147.36
2018-03-06T17:19:34.943Z,95158.08
2018-03-06T17:22:06.014Z,95163.55
2018-03-06T17:24:37.052Z,95165.34
2018-03-06T17:27:08.050Z,95169.57
2018-03-06T17:29:39.046Z,95168.27
2018-03-06T17:32:10.523Z,95168.53
2018-03-06T17:34:41.541Z,95173.11
2018-03-06T17:37:12.709Z,95167.55
2018-03-06T17:39:43.714Z,95173.86
2018-03-06T17:42:14.784Z,95176.17
2018-03-06T17:44:45.812Z,95178.31
2018-03-06T17:47:16.801Z,95177.78
2018-03-06T17:49:47.858Z,95181.57
2018-03-06T17:52:18.881Z,95183.66
2018-03-06T17:54:49.946Z,95181.18
2018-03-06T17:57:20.970Z,95182.35
2018-03-06T17:59:52.007Z,95190.33
2018-03-06T18:02:23.011Z,95180.53
2018-03-06T18:04:54.052Z,95183.02
2018-03-06T18:07:25.126Z,95185.02
2018-03-06T18:09:56.132Z,95189.66
2018-03-06T18:12:27.153Z,95188.00
2018-03-06T18:14:58.173Z,95181.12
2018-03-06T18:17:29.174Z,95184.87
2018-03-06T18:20:00.192Z,95181.78
2018-03-06T18:22:31.250Z,95184.45
2018-03-06T18:25:02.268Z,95189.66
2018-03-06T18:27:33.338Z,95195.72
2018-03-06T18:30:04.405Z,95193.44
2018-03-06T18:32:35.485Z,95198.87
2018-03-06T18:35:06.575Z,95206.31
2018-03-06T18:37:37.640Z,95200.16
2018-03-06T18:40:08.795Z,95216.06
2018-03-06T18:42:39.792Z,95207.69
2018-03-06T18:45:10.811Z,95206.83
2018-03-06T18:47:41.813Z,95211.23
2018-03-06T18:50:25.197Z,95211.80
2018-03-06T18:52:56.230Z,95213.03
2018-03-06T18:55:27.294Z,95222.67
2018-03-06T18:57:58.314Z,95224.41
2018-03-06T19:04:00.095Z,95229.33
2018-03-06T19:06:35.021Z,95226.33
2018-03-06T19:09:06.076Z,95223.98
2018-03-06T19:11:37.067Z,95227.02
2018-03-06T19:14:08.130Z,95232.77
2018-03-06T19:16:39.149Z,95222.64
2018-03-06T19:19:10.276Z,95226.74
2018-03-06T19:21:41.259Z,95220.91
2018-03-06T19:24:12.309Z,95224.96
2018-03-06T19:26:43.366Z,95224.86
2018-03-06T19:29:14.418Z,95220.59
2018-03-06T19:31:45.437Z,95223.34
2018-03-06T19:34:16.460Z,95220.73
2018-03-06T19:36:47.469Z,95222.42
2018-03-06T19:39:18.439Z,95227.34
2018-03-06T19:41:49.461Z,95227.42
2018-03-06T19:44:20.476Z,95228.52
2018-03-06T19:46:51.485Z,95232.52
2018-03-06T19:49:22.503Z,95234.86
2018-03-06T19:51:53.524Z,95235.52
2018-03-06T19:54:24.463Z,95235.39
2018-03-06T19:56:55.494Z,95237.99
2018-03-06T19:59:26.467Z,95238.52
2018-03-06T20:01:57.442Z,95235.86
2018-03-06T20:04:28.501Z,95236.30
2018-03-06T20:06:59.487Z,95238.87
2018-03-06T20:09:30.513Z,95248.06
2018-03-06T20:12:01.502Z,95246.23
2018-03-06T20:14:38.630Z,95250.80
2018-03-06T20:17:09.617Z,95251.45
2018-03-06T20:19:40.629Z,95249.85
2018-03-06T20:22:11.644Z,95250.11
2018-03-06T20:24:48.760Z,95246.67
2018-03-06T20:27:19.834Z,95247.09
2018-03-06T20:29:50.803Z,95246.58
2018-03-06T20:32:28.057Z,95253.54
2018-03-06T20:34:59.068Z,95242.45
2018-03-06T20:37:30.073Z,95231.61
2018-03-06T20:40:07.263Z,95245.97
2018-03-06T20:42:38.276Z,95243.11
2018-03-06T20:45:09.322Z,95246.53
2018-03-06T20:47:40.319Z,95242.48
2018-03-06T20:50:11.337Z,95243.40
2018-03-06T20:52:48.339Z,95245.48
2018-03-06T20:55:19.342Z,95248.11
2018-03-06T20:57:50.309Z,95247.84
2018-03-06T21:00:21.342Z,95244.53
2018-03-06T21:02:52.330Z,95246.97
2018-03-06T21:05:23.365Z,95241.88
2018-03-06T21:07:54.329Z,95241.09
2018-03-06T21:10:25.324Z,95245.80
2018-03-06T21:12:56.316Z,95245.94
2018-03-06T21:15:27.335Z,95242.94
2018-03-06T21:17:58.377Z,95247.53
2018-03-06T21:20:29.367Z,95244.28
2018-03-06T21:23:00.390Z,95248.36
2018-03-06T21:25:31.377Z,95246.54
2018-03-06T21:28:02.392Z,95248.75
2018-03-06T21:30:33.343Z,95252.93
2018-03-06T21:33:04.344Z,95245.33
2018-03-06T21:35:35.315Z,95244.84
2018-03-06T21:38:06.333Z,95247.28
2018-03-06T21:40:37.316Z,95251.47
2018-03-06T21:43:08.281Z,95254.86
2018-03-06T21:45:39.230Z,95257.34
2018-03-06T21:48:10.221Z,95259.30
2018-03-06T21:50:41.210Z,95264.77
2018-03-06T21:53:12.152Z,95264.47
2018-03-06T21:55:43.177Z,95263.30
2018-03-06T21:58:14.173Z,95271.66
2018-03-06T22:00:45.197Z,95264.38
2018-03-06T22:03:16.160Z,95262.46
2018-03-06T22:05:47.155Z,95263.81
2018-03-06T22:08:18.172Z,95265.80
2018-03-06T22:10:49.155Z,95269.34
2018-03-06T22:13:20.180Z,95266.66
2018-03-06T22:15:51.162Z,95266.05
2018-03-06T22:18:22.191Z,95271.42
2018-03-06T22:20:53.151Z,95271.09
2018-03-06T22:23:24.154Z,95273.83
2018-03-06T22:25:55.118Z,95274.11
2018-03-06T22:28:26.160Z,95271.01
2018-03-06T22:30:57.173Z,95276.48
2018-03-06T22:33:28.163Z,95275.17
2018-03-06T22:35:59.166Z,95276.35
2018-03-06T22:38:30.163Z,95274.55
2018-03-06T22:41:01.184Z,95279.25
2018-03-06T22:43:32.160Z,95279.21
2018-03-06T22:46:03.140Z,95282.60
2018-03-06T22:48:34.146Z,95283.28
2018-03-06T22:51:05.202Z,95287.70
2018-03-06T22:53:36.198Z,95284.47
2018-03-06T22:56:07.202Z,95293.45
2018-03-06T22:58:38.233Z,95284.58
2018-03-06T23:01:09.204Z,95283.42
2018-03-06T23:03:40.176Z,95297.22
2018-03-06T23:06:11.136Z,95287.91
2018-03-06T23:08:42.155Z,95294.67
2018-03-06T23:11:13.118Z,95291.25
2018-03-06T23:13:44.156Z,95300.49
2018-03-06T23:16:15.153Z,95290.91
2018-03-06T23:18:46.166Z,95292.59
2018-03-06T23:21:17.146Z,95294.13
2018-03-06T23:23:48.158Z,95293.22
2018-03-06T23:26:19.172Z,95292.30
2018-03-06T23:28:50.151Z,95288.52
2018-03-06T23:31:21.168Z,95297.92
2018-03-06T23:33:52.168Z,95295.31
2018-03-06T23:36:23.122Z,95303.23
2018-03-06T23:38:54.156Z,95298.66
2018-03-06T23:41:25.160Z,95301.89
2018-03-06T23:43:56.217Z,95301.34
2018-03-06T23:46:27.199Z,95297.64
2018-03-06T23:48:58.250Z,95296.95
2018-03-06T23:51:29.236Z,95298.41
2018-03-06T23:54:00.215Z,95295.77
2018-03-06T23:56:31.253Z,95296.55
2018-03-06T23:59:02.275Z,95303.56
